sensor_id;sensor_type;location;lat;lon;timestamp;pressure;altitude;pressure_sealevel;temperature;humidity
45275;BME280;31019;43.780;25.948;2022-10-18T00:02:04;102888.22;;;2.17;100.00
45275;BME280;31019;43.780;25.948;2022-10-18T00:04:36;102888.13;;;1.77;100.00
45275;BME280;31019;43.780;25.948;2022-10-18T00:07:03;102886.91;;;1.82;100.00
45275;BME280;31019;43.780;25.948;2022-10-18T00:09:33;102876.00;;;2.03;100.00
45275;BME280;31019;43.780;25.948;2022-10-18T00:12:03;102880.47;;;2.15;100.00
45275;BME280;31019;43.780;25.948;2022-10-18T00:14:35;102882.50;;;2.24;100.00
45275;BME280;31019;43.780;25.948;2022-10-18T00:17:05;102878.88;;;2.13;100.00
45275;BME280;31019;43.780;25.948;2022-10-18T00:19:38;102873.38;;;2.03;100.00
45275;BME280;31019;43.780;25.948;2022-10-18T00:22:07;102877.09;;;2.13;100.00
45275;BME280;31019;43.780;25.948;2022-10-18T00:24:36;102871.34;;;1.94;100.00
45275;BME280;31019;43.780;25.948;2022-10-18T00:27:16;102870.03;;;1.87;100.00
45275;BME280;31019;43.780;25.948;2022-10-18T00:29:48;102868.63;;;1.81;100.00
45275;BME280;31019;43.780;25.948;2022-10-18T00:32:17;102874.25;;;1.75;100.00
45275;BME280;31019;43.780;25.948;2022-10-18T00:34:51;102866.78;;;1.83;100.00
45275;BME280;31019;43.780;25.948;2022-10-18T00:37:19;102868.56;;;1.82;100.00
45275;BME280;31019;43.780;25.948;2022-10-18T00:39:49;102861.34;;;1.86;100.00
45275;BME280;31019;43.780;25.948;2022-10-18T00:42:20;102859.09;;;1.80;100.00
45275;BME280;31019;43.780;25.948;2022-10-18T00:45:03;102858.34;;;1.78;100.00
45275;BME280;31019;43.780;25.948;2022-10-18T00:47:31;102854.63;;;1.68;100.00
45275;BME280;31019;43.780;25.948;2022-10-18T00:50:05;102862.13;;;1.59;100.00
45275;BME280;31019;43.780;25.948;2022-10-18T00:52:37;102851.66;;;1.31;100.00
45275;BME280;31019;43.780;25.948;2022-10-18T00:55:10;102853.53;;;1.43;100.00
45275;BME280;31019;43.780;25.948;2022-10-18T00:57:38;102852.97;;;1.52;100.00
45275;BME280;31019;43.780;25.948;2022-10-18T01:00:08;102843.06;;;1.57;100.00
45275;BME280;31019;43.780;25.948;2022-10-18T01:02:41;102852.66;;;1.71;100.00
45275;BME280;31019;43.780;25.948;2022-10-18T01:05:17;102855.91;;;1.75;100.00
45275;BME280;31019;43.780;25.948;2022-10-18T01:10:53;102852.00;;;1.39;100.00
45275;BME280;31019;43.780;25.948;2022-10-18T01:13:38;102843.78;;;1.45;100.00
45275;BME280;31019;43.780;25.948;2022-10-18T01:16:13;102845.75;;;1.56;100.00
45275;BME280;31019;43.780;25.948;2022-10-18T01:18:46;102842.28;;;1.55;100.00
45275;BME280;31019;43.780;25.948;2022-10-18T01:21:34;102848.94;;;1.47;100.00
45275;BME280;31019;43.780;25.948;2022-10-18T01:27:22;102840.44;;;1.43;100.00
45275;BME280;31019;43.780;25.948;2022-10-18T01:30:03;102836.59;;;1.49;100.00
45275;BME280;31019;43.780;25.948;2022-10-18T01:32:38;102837.91;;;1.27;100.00
45275;BME280;31019;43.780;25.948;2022-10-18T01:35:10;102833.13;;;1.48;100.00
45275;BME280;31019;43.780;25.948;2022-10-18T01:37:41;102834.94;;;1.33;100.00
45275;BME280;31019;43.780;25.948;2022-10-18T01:40:11;102835.66;;;1.35;100.00
45275;BME280;31019;43.780;25.948;2022-10-18T01:42:39;102831.84;;;1.12;100.00
45275;BME280;31019;43.780;25.948;2022-10-18T01:45:08;102824.44;;;1.05;100.00
45275;BME280;31019;43.780;25.948;2022-10-18T01:47:37;102821.56;;;1.09;100.00
45275;BME280;31019;43.780;25.948;2022-10-18T01:50:06;102814.81;;;1.34;100.00
45275;BME280;31019;43.780;25.948;2022-10-18T01:52:33;102813.38;;;1.00;100.00
45275;BME280;31019;43.780;25.948;2022-10-18T01:55:01;102825.56;;;1.15;100.00
45275;BME280;31019;43.780;25.948;2022-10-18T01:57:34;102815.53;;;0.93;100.00
45275;BME280;31019;43.780;25.948;2022-10-18T02:02:49;102807.53;;;1.10;100.00
45275;BME280;31019;43.780;25.948;2022-10-18T02:05:23;102813.88;;;1.06;100.00
45275;BME280;31019;43.780;25.948;2022-10-18T02:08:00;102812.44;;;0.86;100.00
45275;BME280;31019;43.780;25.948;2022-10-18T02:10:32;102812.69;;;0.67;100.00
45275;BME280;31019;43.780;25.948;2022-10-18T02:13:01;102811.91;;;0.51;100.00
45275;BME280;31019;43.780;25.948;2022-10-18T02:15:31;102819.16;;;0.76;100.00
45275;BME280;31019;43.780;25.948;2022-10-18T02:18:04;102810.16;;;0.66;100.00
45275;BME280;31019;43.780;25.948;2022-10-18T02:20:33;102811.53;;;0.43;100.00
45275;BME280;31019;43.780;25.948;2022-10-18T02:23:02;102807.34;;;0.55;100.00
45275;BME280;31019;43.780;25.948;2022-10-18T02:25:33;102805.09;;;0.63;100.00
45275;BME280;31019;43.780;25.948;2022-10-18T02:28:00;102807.88;;;0.45;100.00
45275;BME280;31019;43.780;25.948;2022-10-18T02:30:32;102808.53;;;0.79;100.00
45275;BME280;31019;43.780;25.948;2022-10-18T02:33:05;102802.97;;;0.69;100.00
45275;BME280;31019;43.780;25.948;2022-10-18T02:35:39;102814.44;;;0.97;100.00
45275;BME280;31019;43.780;25.948;2022-10-18T02:38:08;102807.03;;;0.89;100.00
45275;BME280;31019;43.780;25.948;2022-10-18T02:40:36;102811.63;;;0.86;100.00
45275;BME280;31019;43.780;25.948;2022-10-18T02:43:05;102813.66;;;0.81;100.00
45275;BME280;31019;43.780;25.948;2022-10-18T02:45:32;102816.56;;;0.76;100.00
45275;BME280;31019;43.780;25.948;2022-10-18T02:47:59;102822.84;;;0.88;100.00
45275;BME280;31019;43.780;25.948;2022-10-18T02:50:27;102818.91;;;0.95;100.00
45275;BME280;31019;43.780;25.948;2022-10-18T02:52:54;102813.69;;;0.95;100.00
45275;BME280;31019;43.780;25.948;2022-10-18T02:55:20;102819.00;;;0.94;100.00
45275;BME280;31019;43.780;25.948;2022-10-18T02:57:47;102818.03;;;0.80;100.00
45275;BME280;31019;43.780;25.948;2022-10-18T03:00:14;102820.59;;;0.82;100.00
45275;BME280;31019;43.780;25.948;2022-10-18T03:02:41;102811.91;;;0.96;100.00
45275;BME280;31019;43.780;25.948;2022-10-18T03:05:08;102823.38;;;0.79;100.00
45275;BME280;31019;43.780;25.948;2022-10-18T03:07:36;102821.97;;;0.73;100.00
45275;BME280;31019;43.780;25.948;2022-10-18T03:10:03;102812.59;;;0.55;100.00
45275;BME280;31019;43.780;25.948;2022-10-18T03:12:30;102817.59;;;0.88;100.00
45275;BME280;31019;43.780;25.948;2022-10-18T03:14:57;102812.72;;;0.96;100.00
45275;BME280;31019;43.780;25.948;2022-10-18T03:17:24;102810.69;;;1.01;100.00
45275;BME280;31019;43.780;25.948;2022-10-18T03:19:50;102817.88;;;0.98;100.00
45275;BME280;31019;43.780;25.948;2022-10-18T03:22:17;102807.47;;;0.67;100.00
45275;BME280;31019;43.780;25.948;2022-10-18T03:24:45;102817.66;;;0.72;100.00
45275;BME280;31019;43.780;25.948;2022-10-18T03:27:12;102815.53;;;0.79;100.00
45275;BME280;31019;43.780;25.948;2022-10-18T03:29:38;102814.19;;;0.72;100.00
45275;BME280;31019;43.780;25.948;2022-10-18T03:32:17;102811.09;;;0.65;100.00
45275;BME280;31019;43.780;25.948;2022-10-18T03:34:56;102814.59;;;0.80;100.00
45275;BME280;31019;43.780;25.948;2022-10-18T03:37:24;102815.03;;;0.72;100.00
45275;BME280;31019;43.780;25.948;2022-10-18T03:39:55;102813.00;;;0.77;100.00
45275;BME280;31019;43.780;25.948;2022-10-18T03:42:23;102813.84;;;0.78;100.00
45275;BME280;31019;43.780;25.948;2022-10-18T03:44:56;102811.91;;;0.51;100.00
45275;BME280;31019;43.780;25.948;2022-10-18T03:47:27;102810.25;;;0.64;100.00
45275;BME280;31019;43.780;25.948;2022-10-18T03:49:54;102812.44;;;0.42;100.00
45275;BME280;31019;43.780;25.948;2022-10-18T03:52:21;102803.78;;;0.56;100.00
45275;BME280;31019;43.780;25.948;2022-10-18T03:54:50;102824.25;;;0.49;100.00
45275;BME280;31019;43.780;25.948;2022-10-18T03:57:18;102813.97;;;0.46;100.00
45275;BME280;31019;43.780;25.948;2022-10-18T03:59:45;102809.84;;;0.26;100.00
45275;BME280;31019;43.780;25.948;2022-10-18T04:02:13;102805.16;;;0.17;100.00
45275;BME280;31019;43.780;25.948;2022-10-18T04:04:39;102813.00;;;0.17;100.00
45275;BME280;31019;43.780;25.948;2022-10-18T04:07:09;102803.78;;;0.26;100.00
45275;BME280;31019;43.780;25.948;2022-10-18T04:09:36;102803.22;;;0.51;100.00
45275;BME280;31019;43.780;25.948;2022-10-18T04:12:03;102801.47;;;0.65;100.00
45275;BME280;31019;43.780;25.948;2022-10-18T04:14:32;102811.66;;;-0.06;100.00
45275;BME280;31019;43.780;25.948;2022-10-18T04:16:59;102802.19;;;0.23;100.00
45275;BME280;31019;43.780;25.948;2022-10-18T04:19:31;102803.22;;;0.05;100.00
45275;BME280;31019;43.780;25.948;2022-10-18T04:21:58;102805.59;;;0.09;100.00
45275;BME280;31019;43.780;25.948;2022-10-18T04:24:27;102804.50;;;0.43;100.00
45275;BME280;31019;43.780;25.948;2022-10-18T04:26:56;102810.69;;;0.42;100.00
45275;BME280;31019;43.780;25.948;2022-10-18T04:29:33;102797.38;;;0.31;100.00
45275;BME280;31019;43.780;25.948;2022-10-18T04:32:12;102797.75;;;0.09;100.00
45275;BME280;31019;43.780;25.948;2022-10-18T04:34:42;102794.47;;;0.52;100.00
45275;BME280;31019;43.780;25.948;2022-10-18T04:37:09;102791.19;;;0.62;100.00
45275;BME280;31019;43.780;25.948;2022-10-18T04:39:37;102793.81;;;0.62;100.00
45275;BME280;31019;43.780;25.948;2022-10-18T04:42:07;102792.97;;;0.32;100.00
45275;BME280;31019;43.780;25.948;2022-10-18T04:44:36;102796.50;;;0.47;100.00
45275;BME280;31019;43.780;25.948;2022-10-18T04:47:06;102794.13;;;0.42;100.00
45275;BME280;31019;43.780;25.948;2022-10-18T04:49:42;102800.00;;;0.31;100.00
45275;BME280;31019;43.780;25.948;2022-10-18T04:52:13;102794.72;;;0.47;100.00
45275;BME280;31019;43.780;25.948;2022-10-18T04:54:40;102802.13;;;0.69;100.00
45275;BME280;31019;43.780;25.948;2022-10-18T04:57:19;102799.28;;;1.02;100.00
45275;BME280;31019;43.780;25.948;2022-10-18T04:59:49;102793.97;;;1.18;100.00
45275;BME280;31019;43.780;25.948;2022-10-18T05:02:19;102807.41;;;1.26;100.00
45275;BME280;31019;43.780;25.948;2022-10-18T05:04:46;102801.81;;;1.47;100.00
45275;BME280;31019;43.780;25.948;2022-10-18T05:07:12;102810.69;;;1.58;100.00
45275;BME280;31019;43.780;25.948;2022-10-18T05:09:45;102797.44;;;1.74;100.00
45275;BME280;31019;43.780;25.948;2022-10-18T05:12:12;102797.41;;;1.89;100.00
45275;BME280;31019;43.780;25.948;2022-10-18T05:14:46;102798.09;;;2.05;100.00
45275;BME280;31019;43.780;25.948;2022-10-18T05:17:15;102798.72;;;2.09;100.00
45275;BME280;31019;43.780;25.948;2022-10-18T05:19:48;102808.22;;;2.24;100.00
45275;BME280;31019;43.780;25.948;2022-10-18T05:22:15;102792.16;;;2.16;100.00
45275;BME280;31019;43.780;25.948;2022-10-18T05:24:41;102797.06;;;2.47;100.00
45275;BME280;31019;43.780;25.948;2022-10-18T05:27:08;102794.56;;;2.59;100.00
45275;BME280;31019;43.780;25.948;2022-10-18T05:29:38;102796.56;;;2.81;100.00
45275;BME280;31019;43.780;25.948;2022-10-18T05:32:07;102796.69;;;2.92;100.00
45275;BME280;31019;43.780;25.948;2022-10-18T05:34:36;102790.38;;;3.20;100.00
45275;BME280;31019;43.780;25.948;2022-10-18T05:37:03;102801.00;;;3.18;100.00
45275;BME280;31019;43.780;25.948;2022-10-18T05:39:30;102801.91;;;3.17;100.00
45275;BME280;31019;43.780;25.948;2022-10-18T05:41:57;102801.91;;;3.43;100.00
45275;BME280;31019;43.780;25.948;2022-10-18T05:44:28;102809.03;;;3.78;100.00
45275;BME280;31019;43.780;25.948;2022-10-18T05:46:55;102815.91;;;3.67;100.00
45275;BME280;31019;43.780;25.948;2022-10-18T05:49:27;102815.59;;;3.96;100.00
45275;BME280;31019;43.780;25.948;2022-10-18T05:51:58;102821.38;;;4.01;100.00
45275;BME280;31019;43.780;25.948;2022-10-18T05:54:25;102822.22;;;4.02;100.00
45275;BME280;31019;43.780;25.948;2022-10-18T05:56:52;102819.66;;;4.13;100.00
45275;BME280;31019;43.780;25.948;2022-10-18T05:59:19;102817.00;;;4.72;100.00
45275;BME280;31019;43.780;25.948;2022-10-18T06:01:47;102816.59;;;4.66;100.00
45275;BME280;31019;43.780;25.948;2022-10-18T06:04:15;102827.09;;;5.12;100.00
45275;BME280;31019;43.780;25.948;2022-10-18T06:06:46;102823.16;;;5.18;100.00
45275;BME280;31019;43.780;25.948;2022-10-18T06:09:14;102825.56;;;5.21;100.00
45275;BME280;31019;43.780;25.948;2022-10-18T06:11:41;102822.53;;;5.59;100.00
45275;BME280;31019;43.780;25.948;2022-10-18T06:14:09;102815.69;;;5.79;100.00
45275;BME280;31019;43.780;25.948;2022-10-18T06:16:50;102816.50;;;6.02;100.00
45275;BME280;31019;43.780;25.948;2022-10-18T06:19:22;102811.63;;;6.18;100.00
45275;BME280;31019;43.780;25.948;2022-10-18T06:21:54;102821.28;;;6.29;100.00
45275;BME280;31019;43.780;25.948;2022-10-18T06:24:22;102818.25;;;6.66;100.00
45275;BME280;31019;43.780;25.948;2022-10-18T06:26:49;102816.03;;;6.71;100.00
45275;BME280;31019;43.780;25.948;2022-10-18T06:29:25;102812.81;;;6.88;100.00
45275;BME280;31019;43.780;25.948;2022-10-18T06:31:53;102809.06;;;7.12;100.00
45275;BME280;31019;43.780;25.948;2022-10-18T06:34:22;102813.16;;;7.86;100.00
45275;BME280;31019;43.780;25.948;2022-10-18T06:36:48;102814.28;;;7.83;100.00
45275;BME280;31019;43.780;25.948;2022-10-18T06:39:15;102812.41;;;7.45;100.00
45275;BME280;31019;43.780;25.948;2022-10-18T06:41:44;102808.03;;;7.94;100.00
45275;BME280;31019;43.780;25.948;2022-10-18T06:44:10;102810.81;;;7.92;100.00
45275;BME280;31019;43.780;25.948;2022-10-18T06:46:41;102812.09;;;8.27;100.00
45275;BME280;31019;43.780;25.948;2022-10-18T06:49:08;102794.22;;;8.68;100.00
45275;BME280;31019;43.780;25.948;2022-10-18T06:51:35;102794.38;;;9.13;100.00
45275;BME280;31019;43.780;25.948;2022-10-18T06:54:02;102793.00;;;8.33;100.00
45275;BME280;31019;43.780;25.948;2022-10-18T06:56:33;102798.38;;;9.55;100.00
45275;BME280;31019;43.780;25.948;2022-10-18T06:59:03;102796.06;;;9.88;100.00
45275;BME280;31019;43.780;25.948;2022-10-18T07:01:30;102797.28;;;9.93;100.00
45275;BME280;31019;43.780;25.948;2022-10-18T07:03:57;102793.81;;;10.11;100.00
45275;BME280;31019;43.780;25.948;2022-10-18T07:06:24;102799.44;;;10.69;100.00
45275;BME280;31019;43.780;25.948;2022-10-18T07:08:52;102792.19;;;11.06;100.00
45275;BME280;31019;43.780;25.948;2022-10-18T07:11:20;102793.06;;;11.14;100.00
45275;BME280;31019;43.780;25.948;2022-10-18T07:13:51;102796.97;;;11.95;100.00
45275;BME280;31019;43.780;25.948;2022-10-18T07:16:20;102801.63;;;11.85;100.00
45275;BME280;31019;43.780;25.948;2022-10-18T07:18:49;102795.16;;;12.28;100.00
45275;BME280;31019;43.780;25.948;2022-10-18T07:21:17;102782.78;;;12.84;100.00
45275;BME280;31019;43.780;25.948;2022-10-18T07:23:45;102786.00;;;13.27;100.00
45275;BME280;31019;43.780;25.948;2022-10-18T07:26:15;102779.97;;;13.88;100.00
45275;BME280;31019;43.780;25.948;2022-10-18T07:28:43;102781.44;;;13.67;100.00
45275;BME280;31019;43.780;25.948;2022-10-18T07:31:13;102781.28;;;13.69;100.00
45275;BME280;31019;43.780;25.948;2022-10-18T07:33:41;102777.78;;;14.14;100.00
45275;BME280;31019;43.780;25.948;2022-10-18T07:36:10;102779.94;;;14.57;100.00
45275;BME280;31019;43.780;25.948;2022-10-18T07:38:38;102773.50;;;14.66;100.00
45275;BME280;31019;43.780;25.948;2022-10-18T07:41:07;102768.53;;;15.07;100.00
45275;BME280;31019;43.780;25.948;2022-10-18T13:05:55;102286.13;;;23.98;36.32
45275;BME280;31019;43.780;25.948;2022-10-18T13:08:36;102273.88;;;24.65;36.47
45275;BME280;31019;43.780;25.948;2022-10-18T13:11:27;102279.22;;;25.02;35.06
45275;BME280;31019;43.780;25.948;2022-10-18T13:17:14;102275.88;;;24.80;36.29
45275;BME280;31019;43.780;25.948;2022-10-18T13:19:53;102266.91;;;24.79;36.10
45275;BME280;31019;43.780;25.948;2022-10-18T13:22:34;102268.00;;;24.41;37.36
45275;BME280;31019;43.780;25.948;2022-10-18T13:25:11;102265.59;;;24.92;35.24
45275;BME280;31019;43.780;25.948;2022-10-18T13:27:43;102265.47;;;23.92;36.29
45275;BME280;31019;43.780;25.948;2022-10-18T13:30:40;102249.00;;;23.71;36.43
45275;BME280;31019;43.780;25.948;2022-10-18T13:33:27;102258.16;;;23.16;38.44
45275;BME280;31019;43.780;25.948;2022-10-18T13:35:57;102258.88;;;22.68;40.06
45275;BME280;31019;43.780;25.948;2022-10-18T13:38:44;102247.56;;;23.91;37.09
45275;BME280;31019;43.780;25.948;2022-10-18T13:41:15;102247.13;;;23.50;37.04
45275;BME280;31019;43.780;25.948;2022-10-18T13:44:16;102238.22;;;24.14;37.00
45275;BME280;31019;43.780;25.948;2022-10-18T13:47:10;102232.69;;;24.36;34.96
45275;BME280;31019;43.780;25.948;2022-10-18T13:50:02;102230.94;;;23.82;36.38
45275;BME280;31019;43.780;25.948;2022-10-18T13:52:47;102223.56;;;21.90;37.78
45275;BME280;31019;43.780;25.948;2022-10-18T13:55:53;102230.38;;;23.80;36.34
45275;BME280;31019;43.780;25.948;2022-10-18T13:58:29;102218.22;;;23.06;37.52
45275;BME280;31019;43.780;25.948;2022-10-18T14:01:14;102215.94;;;21.70;37.64
45275;BME280;31019;43.780;25.948;2022-10-18T14:06:50;102202.25;;;22.66;39.44
45275;BME280;31019;43.780;25.948;2022-10-18T14:09:21;102200.13;;;21.95;40.83
45275;BME280;31019;43.780;25.948;2022-10-18T14:12:02;102201.13;;;21.15;41.04
45275;BME280;31019;43.780;25.948;2022-10-18T14:14:39;102200.22;;;21.67;40.69
45275;BME280;31019;43.780;25.948;2022-10-18T14:17:15;102193.75;;;22.18;40.01
45275;BME280;31019;43.780;25.948;2022-10-18T14:19:53;102200.00;;;20.99;40.16
45275;BME280;31019;43.780;25.948;2022-10-18T14:22:33;102195.66;;;20.58;41.95
45275;BME280;31019;43.780;25.948;2022-10-18T14:25:22;102190.81;;;21.41;41.42
45275;BME280;31019;43.780;25.948;2022-10-18T14:28:12;102182.03;;;19.52;44.48
45275;BME280;31019;43.780;25.948;2022-10-18T14:30:56;102176.25;;;20.73;43.75
45275;BME280;31019;43.780;25.948;2022-10-18T14:33:30;102174.78;;;20.06;44.11
45275;BME280;31019;43.780;25.948;2022-10-18T14:36:05;102176.72;;;19.87;48.55
45275;BME280;31019;43.780;25.948;2022-10-18T14:38:43;102165.38;;;19.13;46.64
45275;BME280;31019;43.780;25.948;2022-10-18T14:41:15;102167.75;;;19.52;49.91
45275;BME280;31019;43.780;25.948;2022-10-18T14:43:46;102170.16;;;19.11;50.63
45275;BME280;31019;43.780;25.948;2022-10-18T14:46:20;102161.75;;;18.71;55.49
45275;BME280;31019;43.780;25.948;2022-10-18T14:49:00;102157.81;;;18.12;56.48
45275;BME280;31019;43.780;25.948;2022-10-18T14:51:35;102165.66;;;17.56;64.83
45275;BME280;31019;43.780;25.948;2022-10-18T14:54:05;102154.19;;;16.33;74.16
45275;BME280;31019;43.780;25.948;2022-10-18T14:56:42;102154.66;;;16.10;85.63
45275;BME280;31019;43.780;25.948;2022-10-18T14:59:20;102156.91;;;15.73;93.09
45275;BME280;31019;43.780;25.948;2022-10-18T15:01:56;102150.09;;;16.03;93.71
45275;BME280;31019;43.780;25.948;2022-10-18T15:04:28;102143.31;;;15.88;94.59
45275;BME280;31019;43.780;25.948;2022-10-18T15:07:03;102151.75;;;15.65;97.52
45275;BME280;31019;43.780;25.948;2022-10-18T15:09:45;102147.34;;;15.24;100.00
45275;BME280;31019;43.780;25.948;2022-10-18T15:12:17;102147.06;;;14.99;100.00
45275;BME280;31019;43.780;25.948;2022-10-18T15:15:14;102136.50;;;14.84;100.00
45275;BME280;31019;43.780;25.948;2022-10-18T15:17:51;102134.56;;;14.64;100.00
45275;BME280;31019;43.780;25.948;2022-10-18T15:20:25;102135.41;;;14.37;100.00
45275;BME280;31019;43.780;25.948;2022-10-18T15:23:28;102128.81;;;14.33;100.00
45275;BME280;31019;43.780;25.948;2022-10-18T15:26:03;102132.09;;;14.28;100.00
45275;BME280;31019;43.780;25.948;2022-10-18T15:28:41;102133.66;;;13.94;100.00
45275;BME280;31019;43.780;25.948;2022-10-18T15:31:31;102125.91;;;13.28;100.00
45275;BME280;31019;43.780;25.948;2022-10-18T15:34:16;102120.97;;;13.25;100.00
45275;BME280;31019;43.780;25.948;2022-10-18T15:36:59;102121.97;;;13.10;100.00
45275;BME280;31019;43.780;25.948;2022-10-18T15:39:42;102126.75;;;12.63;100.00
45275;BME280;31019;43.780;25.948;2022-10-18T15:42:37;102129.88;;;12.52;100.00
45275;BME280;31019;43.780;25.948;2022-10-18T15:45:33;102125.34;;;12.52;100.00
45275;BME280;31019;43.780;25.948;2022-10-18T15:51:31;102130.09;;;11.98;100.00
45275;BME280;31019;43.780;25.948;2022-10-18T15:54:30;102133.25;;;11.78;100.00
45275;BME280;31019;43.780;25.948;2022-10-18T15:57:10;102136.31;;;11.67;100.00
45275;BME280;31019;43.780;25.948;2022-10-18T15:59:52;102137.13;;;10.98;100.00
45275;BME280;31019;43.780;25.948;2022-10-18T16:02:27;102133.91;;;11.03;100.00
45275;BME280;31019;43.780;25.948;2022-10-18T16:04:58;102141.28;;;10.93;100.00
45275;BME280;31019;43.780;25.948;2022-10-18T16:07:51;102147.00;;;10.73;100.00
45275;BME280;31019;43.780;25.948;2022-10-18T16:10:18;102141.81;;;10.80;100.00
45275;BME280;31019;43.780;25.948;2022-10-18T16:13:05;102145.72;;;10.61;100.00
45275;BME280;31019;43.780;25.948;2022-10-18T16:15:58;102143.59;;;10.57;100.00
45275;BME280;31019;43.780;25.948;2022-10-18T16:18:56;102142.44;;;10.43;100.00
45275;BME280;31019;43.780;25.948;2022-10-18T16:21:41;102141.16;;;10.30;100.00
45275;BME280;31019;43.780;25.948;2022-10-18T16:24:27;102152.59;;;10.39;100.00
45275;BME280;31019;43.780;25.948;2022-10-18T16:26:56;102142.31;;;10.28;100.00
45275;BME280;31019;43.780;25.948;2022-10-18T16:29:33;102145.16;;;10.02;100.00
45275;BME280;31019;43.780;25.948;2022-10-18T16:32:07;102142.00;;;9.74;100.00
45275;BME280;31019;43.780;25.948;2022-10-18T16:34:55;102135.69;;;9.83;100.00
45275;BME280;31019;43.780;25.948;2022-10-18T16:37:24;102144.53;;;9.00;100.00
45275;BME280;31019;43.780;25.948;2022-10-18T16:47:04;102141.16;;;9.32;100.00
45275;BME280;31019;43.780;25.948;2022-10-18T16:49:33;102142.28;;;9.30;100.00
45275;BME280;31019;43.780;25.948;2022-10-18T16:52:03;102140.16;;;9.33;100.00
45275;BME280;31019;43.780;25.948;2022-10-18T16:54:40;102133.38;;;9.47;100.00
45275;BME280;31019;43.780;25.948;2022-10-18T16:57:30;102142.38;;;9.04;100.00
45275;BME280;31019;43.780;25.948;2022-10-18T17:00:21;102135.22;;;8.88;100.00
45275;BME280;31019;43.780;25.948;2022-10-18T17:03:20;102132.97;;;8.67;100.00
45275;BME280;31019;43.780;25.948;2022-10-18T17:05:59;102131.88;;;8.78;100.00
45275;BME280;31019;43.780;25.948;2022-10-18T17:08:38;102129.97;;;8.62;100.00
45275;BME280;31019;43.780;25.948;2022-10-18T17:11:14;102135.75;;;8.57;100.00
45275;BME280;31019;43.780;25.948;2022-10-18T17:14:00;102139.09;;;8.67;100.00
45275;BME280;31019;43.780;25.948;2022-10-18T17:17:38;102135.63;;;8.15;100.00
45275;BME280;31019;43.780;25.948;2022-10-18T17:20:19;102137.69;;;8.03;100.00
45275;BME280;31019;43.780;25.948;2022-10-18T17:22:48;102130.66;;;8.12;100.00
45275;BME280;31019;43.780;25.948;2022-10-18T17:25:31;102125.81;;;8.07;100.00
45275;BME280;31019;43.780;25.948;2022-10-18T17:31:13;102121.72;;;8.13;100.00
45275;BME280;31019;43.780;25.948;2022-10-18T17:33:44;102128.94;;;8.02;100.00
45275;BME280;31019;43.780;25.948;2022-10-18T17:36:17;102130.53;;;7.77;100.00
45275;BME280;31019;43.780;25.948;2022-10-18T17:38:49;102128.28;;;7.65;100.00
45275;BME280;31019;43.780;25.948;2022-10-18T17:41:17;102127.69;;;7.35;100.00
45275;BME280;31019;43.780;25.948;2022-10-18T17:43:49;102119.63;;;7.54;100.00
45275;BME280;31019;43.780;25.948;2022-10-18T17:46:20;102128.75;;;7.60;100.00
45275;BME280;31019;43.780;25.948;2022-10-18T17:48:52;102128.28;;;7.65;100.00
45275;BME280;31019;43.780;25.948;2022-10-18T17:51:24;102118.03;;;7.44;100.00
45275;BME280;31019;43.780;25.948;2022-10-18T17:53:52;102113.13;;;7.31;100.00
45275;BME280;31019;43.780;25.948;2022-10-18T17:56:20;102117.88;;;7.27;100.00
45275;BME280;31019;43.780;25.948;2022-10-18T17:58:53;102112.13;;;6.86;100.00
45275;BME280;31019;43.780;25.948;2022-10-18T18:04:43;102110.69;;;7.20;100.00
45275;BME280;31019;43.780;25.948;2022-10-18T18:07:30;102108.50;;;7.15;100.00
45275;BME280;31019;43.780;25.948;2022-10-18T18:10:07;102098.91;;;6.96;100.00
45275;BME280;31019;43.780;25.948;2022-10-18T18:12:44;102101.53;;;6.96;100.00
45275;BME280;31019;43.780;25.948;2022-10-18T18:15:17;102090.78;;;6.15;100.00
45275;BME280;31019;43.780;25.948;2022-10-18T18:19:05;102090.72;;;6.89;100.00
45275;BME280;31019;43.780;25.948;2022-10-18T18:20:48;102088.94;;;6.90;100.00
45275;BME280;31019;43.780;25.948;2022-10-18T18:23:20;102082.09;;;6.70;100.00
45275;BME280;31019;43.780;25.948;2022-10-18T18:25:58;102084.66;;;6.52;100.00
45275;BME280;31019;43.780;25.948;2022-10-18T18:28:29;102082.22;;;6.68;100.00
45275;BME280;31019;43.780;25.948;2022-10-18T18:31:07;102073.91;;;5.69;100.00
45275;BME280;31019;43.780;25.948;2022-10-18T18:33:46;102072.28;;;6.52;100.00
45275;BME280;31019;43.780;25.948;2022-10-18T18:36:42;102075.53;;;6.46;100.00
45275;BME280;31019;43.780;25.948;2022-10-18T18:39:22;102071.19;;;6.17;100.00
45275;BME280;31019;43.780;25.948;2022-10-18T18:42:03;102074.13;;;6.14;100.00
45275;BME280;31019;43.780;25.948;2022-10-18T18:44:35;102067.56;;;6.18;100.00
45275;BME280;31019;43.780;25.948;2022-10-18T18:47:06;102065.06;;;6.27;100.00
45275;BME280;31019;43.780;25.948;2022-10-18T18:49:35;102062.34;;;6.09;100.00
45275;BME280;31019;43.780;25.948;2022-10-18T18:52:09;102064.16;;;6.08;100.00
45275;BME280;31019;43.780;25.948;2022-10-18T18:54:45;102057.50;;;5.94;100.00
45275;BME280;31019;43.780;25.948;2022-10-18T18:57:17;102057.63;;;5.93;100.00
45275;BME280;31019;43.780;25.948;2022-10-18T18:59:45;102056.00;;;5.72;100.00
45275;BME280;31019;43.780;25.948;2022-10-18T19:02:15;102055.34;;;5.51;100.00
45275;BME280;31019;43.780;25.948;2022-10-18T19:04:46;102047.91;;;5.84;100.00
45275;BME280;31019;43.780;25.948;2022-10-18T19:07:24;102044.47;;;5.73;100.00